KHWD

Hayward Executive Airport

Airport
ICAO code
KHWD
IATA Code
HWD
Summary
ICAO Region
NAM
ICAO Territory
Location

Hayward, California

Serving
Hayward
Elevation
52 ft
Coordinates
37° 39' 32" N , 122° 7' 18" W
KCC
Metar
KHWD 142154Z 30009KT 10SM CLR 22/10 A3003 RMK AO2 SLP178 T02170100

Hayward Executive Airport is a city owned, public use airport located two nautical miles west of the central business district of Hayward, a city in Alameda County, California, United States. This general aviation towered airport is situated near the eastern shore of San Francisco Bay. It was formerly known as Hayward Air Terminal.

Airport map

Aerial View

SKYbrary Partners:

Safety knowledge contributed by: